Time;durP1;ratioP1;P1;durP2;ratioP2;P2;SDS_P1;SDS_P2;PMS_P1;PMS_P2;Temp;Humidity;BMP_temperature;BMP_pressure;BME280_temperature;BME280_humidity;BME280_pressure;Samples;Min_cycle;Max_cycle;Signal;HPM_P1;HPM_P2
2021/03/29 06:19:42;;;;;;;;;;;;;;;6.76;77.68;100862.52;1752600;81;20508;-41
2021/03/29 06:22:19;;;;;;;;;;;;;;;6.86;77.10;100864.51;1744628;81;20202;-41
2021/03/29 06:24:54;;;;;;;;;;;;;;;6.93;76.91;100862.92;1707844;82;20141;-40
2021/03/29 06:27:22;;;;;;;;;;;;;;;6.99;76.67;100860.47;1715122;82;20178;-48
2021/03/29 06:30:13;;;;;;;;;;;;;;;7.02;76.54;100860.98;1698907;82;20186;-47
2021/03/29 06:32:57;;;;;;;;;;;;;;;7.04;76.29;100859.28;1710066;82;20496;-39
2021/03/29 06:35:36;;;;;;;;;;;;;;;7.05;76.22;100865.81;1714374;82;20185;-39
2021/03/29 06:38:34;;;;;;;;;;;;;;;7.09;76.38;100865.05;1724270;82;20200;-46
2021/03/29 06:41:08;;;;;;;;;;;;;;;7.14;76.40;100866.04;1713343;82;20252;-47
2021/03/29 06:43:38;;;;;;;;;;;;;;;7.24;76.58;100868.41;1667235;85;20553;-39
2021/03/29 06:46:24;;;;;;;;;;;;;;;7.35;76.60;100868.65;1683450;84;20192;-46
2021/03/29 06:48:54;;;;;;;;;;;;;;;7.46;76.51;100867.16;1665818;84;20899;-40
2021/03/29 06:51:23;;;;;;;;;;;;;;;7.60;76.48;100862.27;1708169;83;20173;-40
2021/03/29 06:54:07;;;;;;;;;;;;;;;7.71;76.48;100859.43;1694627;83;20176;-46
2021/03/29 06:56:41;;;;;;;;;;;;;;;7.84;75.78;100859.28;1703895;83;20185;-46
2021/03/29 06:59:20;;;;;;;;;;;;;;;7.98;74.77;100859.99;1683406;83;20549;-40
2021/03/29 07:01:49;;;;;;;;;;;;;;;8.13;74.11;100863.33;1666370;84;20266;-47
2021/03/29 07:04:21;;;;;;;;;;;;;;;8.23;73.07;100869.57;1664489;84;20157;-42
2021/03/29 07:06:48;;;;;;;;;;;;;;;8.35;72.24;100867.22;1672484;84;20443;-48
2021/03/29 07:09:16;;;;;;;;;;;;;;;8.45;70.32;100873.06;1669114;84;20192;-48
2021/03/29 07:11:44;;;;;;;;;;;;;;;8.52;68.36;100877.95;1667275;84;20172;-47
2021/03/29 07:14:16;;;;;;;;;;;;;;;8.53;67.83;100877.13;1669686;84;20200;-41
2021/03/29 07:16:45;;;;;;;;;;;;;;;8.56;68.64;100878.47;1642615;85;20565;-47
2021/03/29 07:19:13;;;;;;;;;;;;;;;8.68;68.85;100879.10;1662027;84;20180;-42
2021/03/29 07:21:41;;;;;;;;;;;;;;;8.79;67.27;100883.64;1664229;84;20185;-41
2021/03/29 07:24:10;;;;;;;;;;;;;;;8.90;67.21;100883.83;1664080;86;20186;-41
2021/03/29 07:26:47;;;;;;;;;;;;;;;9.05;67.14;100881.47;1670237;84;20228;-47
2021/03/29 07:29:21;;;;;;;;;;;;;;;9.18;66.17;100881.66;1669156;84;20172;-47
2021/03/29 07:31:58;;;;;;;;;;;;;;;9.35;66.28;100884.52;1697702;83;20187;-47
2021/03/29 07:34:48;;;;;;;;;;;;;;;9.52;66.11;100886.93;1705598;82;20473;-40
2021/03/29 07:37:29;;;;;;;;;;;;;;;9.72;64.64;100887.18;1699739;82;20645;-40
2021/03/29 07:39:59;;;;;;;;;;;;;;;9.87;62.32;100886.08;1702115;83;20193;-41
2021/03/29 07:42:31;;;;;;;;;;;;;;;10.00;61.45;100888.41;1704776;83;20534;-41
2021/03/29 07:45:00;;;;;;;;;;;;;;;10.12;60.83;100889.41;1714552;83;20474;-41
2021/03/29 07:47:41;;;;;;;;;;;;;;;10.27;59.26;100886.56;1709617;83;20490;-41
2021/03/29 07:50:10;;;;;;;;;;;;;;;10.37;57.63;100891.88;1703651;83;20205;-49
2021/03/29 07:52:41;;;;;;;;;;;;;;;10.49;56.54;100889.82;1692591;83;20212;-48
2021/03/29 07:55:19;;;;;;;;;;;;;;;10.61;55.49;100896.51;1694893;83;20676;-48
2021/03/29 07:57:50;;;;;;;;;;;;;;;10.74;54.93;100901.41;1701606;83;20634;-48
2021/03/29 08:00:27;;;;;;;;;;;;;;;10.91;55.43;100896.33;1708785;82;20136;-40
2021/03/29 08:03:00;;;;;;;;;;;;;;;11.10;54.92;100901.27;1711047;82;20179;-41
2021/03/29 08:05:45;;;;;;;;;;;;;;;11.22;54.12;100904.41;1706462;82;20173;-41
2021/03/29 08:08:30;;;;;;;;;;;;;;;11.38;53.34;100904.95;1700687;82;20479;-48
2021/03/29 08:11:15;;;;;;;;;;;;;;;11.53;52.92;100906.77;1706678;82;20184;-48
2021/03/29 08:13:53;;;;;;;;;;;;;;;11.67;52.49;100903.38;1698271;83;20182;-49
2021/03/29 08:16:27;;;;;;;;;;;;;;;11.82;49.60;100906.95;1707414;83;20181;-41
2021/03/29 08:19:14;;;;;;;;;;;;;;;11.94;48.39;100907.01;1692828;82;20170;-47
2021/03/29 08:22:09;;;;;;;;;;;;;;;12.06;48.98;100907.49;1724103;82;20179;-47
2021/03/29 08:24:42;;;;;;;;;;;;;;;12.18;49.16;100916.30;1718401;82;20178;-40
2021/03/29 08:27:20;;;;;;;;;;;;;;;12.29;48.69;100911.50;1709783;82;20179;-41
2021/03/29 08:29:49;;;;;;;;;;;;;;;12.37;48.65;100905.86;1695984;82;20187;-48
2021/03/29 08:32:36;;;;;;;;;;;;;;;12.47;48.45;100919.00;1696589;82;20776;-40
2021/03/29 08:35:12;;;;;;;;;;;;;;;12.55;46.88;100916.83;1697545;82;20181;-48
2021/03/29 08:37:51;;;;;;;;;;;;;;;12.65;45.85;100922.09;1699314;82;20188;-41
2021/03/29 08:40:23;;;;;;;;;;;;;;;12.73;45.06;100931.28;1698413;82;20453;-48
2021/03/29 08:42:54;;;;;;;;;;;;;;;12.71;45.85;100926.48;1702991;82;20200;-41
2021/03/29 08:45:24;;;;;;;;;;;;;;;12.71;45.37;100925.17;1711382;82;20153;-40
2021/03/29 08:47:57;;;;;;;;;;;;;;;12.71;45.94;100929.98;1698453;82;20486;-41
2021/03/29 08:50:29;;;;;;;;;;;;;;;12.77;45.44;100927.36;1706315;82;20566;-48
2021/03/29 08:53:00;;;;;;;;;;;;;;;12.83;45.46;100932.18;1707603;82;20318;-41
2021/03/29 08:55:41;;;;;;;;;;;;;;;12.85;44.14;100936.98;1707244;82;20483;-42
2021/03/29 08:58:08;;;;;;;;;;;;;;;12.89;43.99;100927.80;1635910;85;20500;-41
2021/03/29 09:00:40;;;;;;;;;;;;;;;12.95;44.26;100930.88;1689980;83;20415;-41
2021/03/29 09:03:21;;;;;;;;;;;;;;;13.02;45.01;100931.30;1693505;83;20516;-48
2021/03/29 09:05:49;;;;;;;;;;;;;;;13.11;43.85;100922.56;1699611;83;20383;-48
2021/03/29 09:08:18;;;;;;;;;;;;;;;13.19;44.19;100932.61;1700780;83;20182;-41
2021/03/29 09:10:48;;;;;;;;;;;;;;;13.31;44.01;100928.69;1704309;83;20406;-40
2021/03/29 09:13:16;;;;;;;;;;;;;;;13.42;43.54;100937.44;1661506;85;20172;-40
2021/03/29 09:15:49;;;;;;;;;;;;;;;13.51;44.01;100939.16;1653888;86;20479;-48
2021/03/29 09:18:19;;;;;;;;;;;;;;;13.60;43.62;100935.66;1668944;85;20490;-42
2021/03/29 09:20:48;;;;;;;;;;;;;;;13.64;43.76;100934.78;1685424;84;20191;-47
2021/03/29 09:23:19;;;;;;;;;;;;;;;13.72;43.93;100929.92;1692594;84;20319;-48
2021/03/29 09:25:48;;;;;;;;;;;;;;;13.84;43.03;100930.32;1660790;85;20175;-47
2021/03/29 09:30:56;;;;;;;;;;;;;;;14.03;42.86;100935.06;1697751;83;20173;-40
2021/03/29 09:33:24;;;;;;;;;;;;;;;14.10;42.83;100939.00;1701953;83;20166;-47
2021/03/29 09:35:52;;;;;;;;;;;;;;;14.25;42.34;100944.63;1702160;83;20448;-41
2021/03/29 09:38:36;;;;;;;;;;;;;;;14.37;42.40;100941.05;1705150;83;20188;-47
2021/03/29 09:41:16;;;;;;;;;;;;;;;14.51;42.71;100937.08;1708606;83;20212;-41
2021/03/29 09:43:45;;;;;;;;;;;;;;;14.64;42.56;100932.16;1697395;83;20174;-46
2021/03/29 09:46:13;;;;;;;;;;;;;;;14.81;42.70;100937.31;1702578;83;20181;-48
2021/03/29 09:48:42;;;;;;;;;;;;;;;14.96;42.07;100937.63;1699445;84;20166;-41
2021/03/29 09:51:23;;;;;;;;;;;;;;;15.09;42.02;100941.94;1704571;83;20213;-42
2021/03/29 09:53:51;;;;;;;;;;;;;;;15.16;41.92;100941.86;1706506;83;20174;-49
2021/03/29 09:56:31;;;;;;;;;;;;;;;15.18;41.27;100941.39;1666250;85;20219;-49
2021/03/29 09:58:59;;;;;;;;;;;;;;;15.18;41.43;100941.84;1708099;82;20180;-46
2021/03/29 10:01:27;;;;;;;;;;;;;;;15.06;41.42;100941.94;1708301;84;20489;-42
2021/03/29 10:03:56;;;;;;;;;;;;;;;14.98;41.64;100947.73;1705937;83;20221;-48
2021/03/29 10:06:25;;;;;;;;;;;;;;;14.92;41.15;100949.09;1716755;82;20198;-40
2021/03/29 10:09:03;;;;;;;;;;;;;;;14.80;41.34;100954.88;1703349;82;20181;-50
2021/03/29 10:11:47;;;;;;;;;;;;;;;14.68;41.47;100956.28;1709138;82;20161;-55
2021/03/29 10:14:18;;;;;;;;;;;;;;;14.56;41.71;100947.14;1707460;84;20196;-42
2021/03/29 10:16:48;;;;;;;;;;;;;;;14.50;41.82;100953.32;1705598;84;20487;-41
2021/03/29 10:19:19;;;;;;;;;;;;;;;14.49;41.71;100951.55;1719734;82;20158;-37
2021/03/29 10:22:19;;;;;;;;;;;;;;;14.47;41.96;100953.32;1735048;81;20177;-39
2021/03/29 10:25:02;;;;;;;;;;;;;;;14.40;41.51;100954.21;1730168;82;20172;-39
2021/03/29 10:27:52;;;;;;;;;;;;;;;14.56;41.46;100950.66;1707045;82;20546;-39
2021/03/29 10:30:23;;;;;;;;;;;;;;;14.97;41.86;100956.53;1724212;81;20183;-39
2021/03/29 10:32:53;;;;;;;;;;;;;;;15.50;40.28;100952.09;1721679;81;20187;-38
2021/03/29 10:35:21;;;;;;;;;;;;;;;15.95;38.88;100953.86;1737957;81;20176;-41
2021/03/29 10:37:49;;;;;;;;;;;;;;;16.00;37.68;100964.33;1727765;81;20415;-39
2021/03/29 10:40:18;;;;;;;;;;;;;;;15.82;37.67;100958.38;1728817;81;20391;-44
2021/03/29 10:42:46;;;;;;;;;;;;;;;15.76;37.48;100959.76;1727714;81;20170;-39
2021/03/29 10:45:15;;;;;;;;;;;;;;;15.81;37.27;100961.03;1730902;81;20482;-40
2021/03/29 10:47:44;;;;;;;;;;;;;;;16.15;36.79;100962.39;1730451;82;20578;-39
2021/03/29 10:50:13;;;;;;;;;;;;;;;16.43;35.78;100964.69;1741164;82;20213;-46
2021/03/29 10:52:41;;;;;;;;;;;;;;;16.70;35.52;100952.88;1738370;82;20143;-46
2021/03/29 10:55:10;;;;;;;;;;;;;;;16.86;35.07;100962.77;1733692;82;20144;-46
2021/03/29 10:57:37;;;;;;;;;;;;;;;17.07;34.75;100971.70;1728094;81;20456;-40
2021/03/29 11:00:06;;;;;;;;;;;;;;;17.43;34.66;100962.27;1729156;81;20197;-42
2021/03/29 11:02:35;;;;;;;;;;;;;;;17.94;33.86;100966.66;1731912;81;20162;-42
2021/03/29 11:05:08;;;;;;;;;;;;;;;18.49;33.39;100966.81;1727750;81;20291;-42
2021/03/29 11:07:35;;;;;;;;;;;;;;;18.99;32.16;100966.15;1727541;82;20231;-41
2021/03/29 11:10:03;;;;;;;;;;;;;;;19.14;31.90;100967.98;1728015;82;20282;-42
2021/03/29 11:12:31;;;;;;;;;;;;;;;18.93;30.78;100969.81;1714063;83;20190;-41
2021/03/29 11:14:59;;;;;;;;;;;;;;;18.47;31.47;100974.80;1725147;82;20740;-47
2021/03/29 11:17:30;;;;;;;;;;;;;;;18.02;32.26;100972.20;1728502;82;20431;-41
2021/03/29 11:19:57;;;;;;;;;;;;;;;17.64;31.59;100982.63;1733827;82;20183;-40
2021/03/29 11:22:25;;;;;;;;;;;;;;;17.20;32.13;100980.30;1737478;82;20457;-41
2021/03/29 11:24:52;;;;;;;;;;;;;;;17.31;32.40;100974.38;1734324;81;20179;-41
2021/03/29 11:27:20;;;;;;;;;;;;;;;17.30;32.06;100984.54;1736437;82;20191;-40
2021/03/29 11:29:47;;;;;;;;;;;;;;;17.07;32.06;100982.27;1737147;81;20151;-40
2021/03/29 11:32:15;;;;;;;;;;;;;;;17.01;32.72;100982.37;1732739;82;20179;-40
2021/03/29 11:34:43;;;;;;;;;;;;;;;17.20;32.94;100978.97;1736822;82;20527;-39
2021/03/29 11:37:10;;;;;;;;;;;;;;;17.52;32.71;100988.56;1734944;81;20482;-41
2021/03/29 11:39:40;;;;;;;;;;;;;;;17.90;32.69;100987.00;1738662;81;20503;-39
2021/03/29 11:42:08;;;;;;;;;;;;;;;18.22;31.67;100993.45;1737375;81;20169;-39
2021/03/29 11:44:35;;;;;;;;;;;;;;;18.13;31.09;100989.66;1738648;82;20435;-41
2021/03/29 11:47:03;;;;;;;;;;;;;;;17.71;31.65;100993.52;1732060;82;20470;-41
2021/03/29 11:49:32;;;;;;;;;;;;;;;17.20;30.58;100994.84;1734182;81;20407;-39
2021/03/29 11:52:00;;;;;;;;;;;;;;;16.87;31.35;101001.09;1738445;81;20282;-40
2021/03/29 11:54:29;;;;;;;;;;;;;;;16.77;31.93;101006.08;1698844;83;20541;-40
2021/03/29 11:56:56;;;;;;;;;;;;;;;16.77;32.98;101002.11;1733514;82;20166;-39
2021/03/29 11:59:26;;;;;;;;;;;;;;;16.82;33.32;101005.56;1732092;81;20164;-40
2021/03/29 12:01:58;;;;;;;;;;;;;;;16.92;33.62;100999.22;1738174;82;20165;-40
2021/03/29 12:12:16;;;;;;;;;;;;;;;17.30;30.95;100992.47;1836666;76;20214;-41
2021/03/29 12:14:47;;;;;;;;;;;;;;;17.38;31.05;100989.69;1852288;76;20173;-41
2021/03/29 12:17:17;;;;;;;;;;;;;;;17.46;30.67;100987.80;1847602;77;20181;-41
2021/03/29 12:19:45;;;;;;;;;;;;;;;17.61;30.43;100999.87;1848788;77;20273;-39
2021/03/29 12:22:14;;;;;;;;;;;;;;;17.69;30.30;100998.84;1848104;77;20261;-40
2021/03/29 12:24:44;;;;;;;;;;;;;;;17.78;29.93;101001.80;1835057;77;20148;-42
2021/03/29 12:27:12;;;;;;;;;;;;;;;17.89;28.54;101004.25;1836272;76;20528;-41
2021/03/29 12:29:43;;;;;;;;;;;;;;;17.90;28.73;101005.53;1857869;76;20165;-41
2021/03/29 12:32:13;;;;;;;;;;;;;;;17.97;28.03;101013.77;1850530;77;20462;-41
2021/03/29 12:34:45;;;;;;;;;;;;;;;18.08;27.18;101006.95;1838192;77;20156;-48
2021/03/29 12:37:13;;;;;;;;;;;;;;;17.98;27.94;101011.57;1839972;76;20140;-47
2021/03/29 12:39:46;;;;;;;;;;;;;;;17.80;29.18;101006.18;1839149;77;20147;-46
2021/03/29 12:42:15;;;;;;;;;;;;;;;17.70;29.82;101018.25;1862036;77;20193;-48
2021/03/29 12:44:42;;;;;;;;;;;;;;;17.67;30.26;101004.59;1847341;77;20472;-48
2021/03/29 12:47:15;;;;;;;;;;;;;;;17.84;29.84;101017.56;1849732;77;20159;-47
2021/03/29 12:49:39;;;;;;;;;;;;;;;17.86;28.38;101010.48;1835497;77;20184;-48
2021/03/29 12:52:06;;;;;;;;;;;;;;;17.64;28.90;101014.39;1832995;77;20157;-48
2021/03/29 12:54:36;;;;;;;;;;;;;;;17.38;30.65;101013.49;1848239;77;20178;-47
2021/03/29 12:57:04;;;;;;;;;;;;;;;17.21;31.42;101013.31;1845332;77;20209;-49
2021/03/29 12:59:31;;;;;;;;;;;;;;;17.19;31.28;101011.61;1818849;78;20295;-47
2021/03/29 13:01:59;;;;;;;;;;;;;;;17.20;30.47;101018.18;1779272;80;20151;-48
2021/03/29 13:04:33;;;;;;;;;;;;;;;17.08;30.06;101020.15;1780176;79;20146;-40
2021/03/29 13:09:59;;;;;;;;;;;;;;;17.25;30.12;101017.66;1775382;80;20153;-39
2021/03/29 13:12:19;;;;;;;;;;;;;;;17.40;29.77;101015.69;1779974;80;20289;-39
2021/03/29 13:15:09;;;;;;;;;;;;;;;17.47;30.21;101016.87;1794626;80;20175;-39
2021/03/29 13:17:41;;;;;;;;;;;;;;;17.32;30.19;101034.75;1774558;80;20543;-40
2021/03/29 13:20:10;;;;;;;;;;;;;;;16.90;31.24;101035.38;1764958;81;20171;-40
2021/03/29 13:22:38;;;;;;;;;;;;;;;16.59;31.22;101036.23;1754982;81;20179;-48
2021/03/29 13:25:08;;;;;;;;;;;;;;;16.63;30.44;101033.08;1783532;80;20566;-47
2021/03/29 13:27:35;;;;;;;;;;;;;;;17.02;29.90;101026.40;1749454;81;20206;-48
2021/03/29 13:30:04;;;;;;;;;;;;;;;17.39;29.43;101026.69;1769597;81;20166;-40
2021/03/29 13:32:32;;;;;;;;;;;;;;;17.59;29.50;101021.53;1770058;81;20190;-48
2021/03/29 13:34:59;;;;;;;;;;;;;;;17.71;30.08;101026.59;1785983;80;20168;-48
2021/03/29 13:37:27;;;;;;;;;;;;;;;17.83;29.81;101037.00;1778648;80;20490;-48
2021/03/29 13:39:55;;;;;;;;;;;;;;;18.02;28.79;101035.74;1792891;80;20168;-48
2021/03/29 13:42:23;;;;;;;;;;;;;;;18.17;28.60;101039.02;1793374;80;20237;-47
2021/03/29 13:44:50;;;;;;;;;;;;;;;18.27;27.21;101037.48;1792170;80;20204;-47
2021/03/29 13:47:17;;;;;;;;;;;;;;;18.36;27.39;101037.73;1765017;80;20466;-40
2021/03/29 13:49:48;;;;;;;;;;;;;;;18.41;27.05;101039.84;1792609;80;20172;-47
2021/03/29 13:52:28;;;;;;;;;;;;;;;18.43;27.39;101042.45;1787229;80;20260;-48
2021/03/29 13:55:00;;;;;;;;;;;;;;;18.44;27.08;101040.22;1762828;80;20179;-40
2021/03/29 13:57:27;;;;;;;;;;;;;;;18.32;27.32;101042.66;1784624;80;20172;-47
2021/03/29 13:59:55;;;;;;;;;;;;;;;18.30;26.34;101041.38;1784526;80;20133;-39
2021/03/29 14:02:23;;;;;;;;;;;;;;;18.25;26.76;101051.64;1787448;80;20149;-39
2021/03/29 14:04:50;;;;;;;;;;;;;;;17.96;27.30;101047.77;1788179;78;20584;-39
2021/03/29 14:07:18;;;;;;;;;;;;;;;17.80;27.97;101035.29;1768079;80;20289;-40
2021/03/29 14:09:47;;;;;;;;;;;;;;;17.71;28.25;101049.09;1794075;78;20171;-39
2021/03/29 14:12:16;;;;;;;;;;;;;;;17.72;28.30;101055.70;1758498;80;20189;-47
2021/03/29 14:14:43;;;;;;;;;;;;;;;17.87;28.47;101057.22;1800489;79;20210;-47
2021/03/29 14:17:11;;;;;;;;;;;;;;;18.22;27.87;101053.91;1754876;80;20185;-47
2021/03/29 14:19:39;;;;;;;;;;;;;;;18.54;27.65;101053.70;1786492;79;20431;-40
2021/03/29 14:22:08;;;;;;;;;;;;;;;18.65;27.48;101060.11;1787409;80;20190;-39
2021/03/29 14:24:36;;;;;;;;;;;;;;;18.58;27.49;101065.98;1774359;80;20460;-40
2021/03/29 14:27:03;;;;;;;;;;;;;;;18.53;27.18;101067.86;1779257;80;20190;-40
2021/03/29 14:29:41;;;;;;;;;;;;;;;18.21;27.01;101069.39;1788328;80;20203;-39
2021/03/29 14:32:01;;;;;;;;;;;;;;;17.72;27.68;101076.88;1756965;81;20162;-47
2021/03/29 14:34:30;;;;;;;;;;;;;;;17.18;27.53;101082.58;1757504;81;20190;-40
2021/03/29 14:37:10;;;;;;;;;;;;;;;16.69;28.27;101088.48;1757638;80;20217;-40
2021/03/29 14:39:31;;;;;;;;;;;;;;;16.49;28.79;101085.64;1754992;82;20201;-46
2021/03/29 14:42:05;;;;;;;;;;;;;;;16.39;28.94;101085.31;1786939;80;20171;-40
2021/03/29 14:44:33;;;;;;;;;;;;;;;16.38;29.03;101087.53;1788071;80;20171;-47
2021/03/29 14:47:02;;;;;;;;;;;;;;;16.20;29.24;101087.73;1758728;80;20198;-40
2021/03/29 14:49:29;;;;;;;;;;;;;;;15.95;29.42;101096.36;1757925;81;20221;-39
2021/03/29 14:51:59;;;;;;;;;;;;;;;15.68;29.80;101098.34;1787673;80;20414;-41
2021/03/29 14:54:27;;;;;;;;;;;;;;;15.45;30.20;101097.61;1789413;80;20186;-41
2021/03/29 14:56:54;;;;;;;;;;;;;;;15.37;30.36;101100.76;1789160;80;20175;-39
2021/03/29 14:59:27;;;;;;;;;;;;;;;15.27;30.05;101107.84;1789294;80;20572;-40
2021/03/29 15:02:03;;;;;;;;;;;;;;;15.10;30.06;101114.97;1769983;80;20204;-47
2021/03/29 15:04:26;;;;;;;;;;;;;;;14.87;30.18;101109.82;1735888;82;20165;-40
2021/03/29 15:07:07;;;;;;;;;;;;;;;14.62;30.41;101115.64;1755157;82;20161;-46
2021/03/29 15:09:30;;;;;;;;;;;;;;;14.46;30.80;101116.53;1760282;81;20472;-47
2021/03/29 15:11:57;;;;;;;;;;;;;;;14.32;30.99;101121.41;1759593;80;20226;-46
2021/03/29 15:14:25;;;;;;;;;;;;;;;14.26;31.27;101117.47;1759463;82;20522;-40
2021/03/29 15:16:53;;;;;;;;;;;;;;;14.50;31.34;101129.72;1788319;80;20450;-46
2021/03/29 15:19:21;;;;;;;;;;;;;;;14.94;31.03;101134.38;1790312;80;20139;-39
2021/03/29 15:21:48;;;;;;;;;;;;;;;15.41;30.58;101131.47;1790224;80;20147;-40
2021/03/29 15:24:15;;;;;;;;;;;;;;;15.82;29.47;101135.59;1790322;80;20210;-47
2021/03/29 15:26:43;;;;;;;;;;;;;;;16.04;28.72;101132.33;1789917;80;20171;-46
2021/03/29 15:29:11;;;;;;;;;;;;;;;16.12;28.66;101142.36;1790309;80;20155;-47
2021/03/29 15:31:40;;;;;;;;;;;;;;;15.92;28.88;101138.14;1759138;80;20133;-39
2021/03/29 15:34:08;;;;;;;;;;;;;;;15.51;29.33;101144.16;1759369;82;20531;-46
2021/03/29 15:36:37;;;;;;;;;;;;;;;15.11;29.90;101146.58;1759066;80;20456;-42
2021/03/29 15:39:06;;;;;;;;;;;;;;;14.76;30.53;101153.77;1759352;82;20499;-40
2021/03/29 15:41:35;;;;;;;;;;;;;;;14.42;31.32;101159.09;1759484;80;20520;-47
2021/03/29 15:44:04;;;;;;;;;;;;;;;14.11;31.28;101160.46;1759350;82;20732;-41
2021/03/29 15:46:31;;;;;;;;;;;;;;;13.85;31.86;101170.09;1759323;80;20142;-41
2021/03/29 15:48:59;;;;;;;;;;;;;;;13.63;32.12;101176.24;1758944;81;20315;-41
2021/03/29 15:51:27;;;;;;;;;;;;;;;13.43;32.77;101181.00;1759168;80;20393;-47
2021/03/29 15:53:54;;;;;;;;;;;;;;;13.25;33.28;101186.22;1759049;82;20158;-47
2021/03/29 15:56:22;;;;;;;;;;;;;;;13.09;34.04;101188.31;1781278;80;20175;-40
2021/03/29 15:58:50;;;;;;;;;;;;;;;12.92;34.50;101196.11;1790417;80;20203;-40
2021/03/29 16:01:18;;;;;;;;;;;;;;;12.76;34.95;101195.19;1790644;80;20512;-48
2021/03/29 16:03:53;;;;;;;;;;;;;;;12.62;35.25;101201.65;1790499;80;20230;-40
2021/03/29 16:06:15;;;;;;;;;;;;;;;12.48;35.56;101200.27;1769008;80;20165;-40
2021/03/29 16:08:43;;;;;;;;;;;;;;;12.36;35.96;101204.56;1759448;82;20288;-41
2021/03/29 16:11:11;;;;;;;;;;;;;;;12.23;36.29;101208.81;1735570;82;20164;-41
2021/03/29 16:13:41;;;;;;;;;;;;;;;12.12;36.86;101215.75;1759430;81;20152;-40
2021/03/29 16:16:09;;;;;;;;;;;;;;;11.99;37.20;101219.98;1779023;80;20449;-40
2021/03/29 16:18:37;;;;;;;;;;;;;;;11.85;37.65;101219.87;1790482;80;20201;-48
2021/03/29 16:21:06;;;;;;;;;;;;;;;11.71;38.05;101228.89;1790271;80;20154;-48
2021/03/29 16:23:34;;;;;;;;;;;;;;;11.60;38.29;101223.09;1789818;80;20163;-48
2021/03/29 16:26:08;;;;;;;;;;;;;;;11.46;38.65;101222.92;1771717;80;20189;-41
2021/03/29 16:28:34;;;;;;;;;;;;;;;11.35;39.07;101232.40;1758834;82;20236;-48
2021/03/29 16:31:04;;;;;;;;;;;;;;;11.24;39.24;101234.89;1759260;81;20182;-40
2021/03/29 16:33:31;;;;;;;;;;;;;;;11.15;39.75;101242.22;1759130;82;20223;-47
2021/03/29 16:36:00;;;;;;;;;;;;;;;11.06;40.05;101244.70;1758778;80;20256;-39
2021/03/29 16:38:28;;;;;;;;;;;;;;;10.98;40.21;101251.59;1759186;82;20488;-47
2021/03/29 16:40:55;;;;;;;;;;;;;;;10.91;40.52;101256.30;1768036;80;20151;-40
2021/03/29 16:43:23;;;;;;;;;;;;;;;10.82;40.73;101253.55;1760977;80;20163;-47
2021/03/29 16:45:50;;;;;;;;;;;;;;;10.73;40.99;101256.92;1767018;80;20155;-40
2021/03/29 16:48:18;;;;;;;;;;;;;;;10.64;41.30;101251.11;1767716;80;20172;-41
2021/03/29 16:50:45;;;;;;;;;;;;;;;10.55;41.55;101257.93;1773579;80;20163;-48
2021/03/29 16:53:13;;;;;;;;;;;;;;;10.48;41.82;101258.70;1790560;80;20128;-47
2021/03/29 16:55:40;;;;;;;;;;;;;;;10.39;42.13;101260.77;1790459;80;20203;-40
2021/03/29 17:10:39;;;;;;;18.35;10.35;;;;;;;10.23;43.57;101279.63;1779455;79;22238;-47
2021/03/29 17:13:07;;;;;;;17.85;10.35;;;;;;;10.08;43.65;101289.38;1705938;84;21388;-41
2021/03/29 17:15:36;;;;;;;16.90;10.08;;;;;;;9.94;43.75;101289.58;1677745;85;21186;-46
